Terminal Aerodrome Forecast
Issued by NWS Goodland, KS

Home | Current Version | Previous Version | Text Only | Print | Product List | Glossary On
Versions: 1 2 3 4 5 6 7 8 9 10 11 12 13 14 15 16 17 18 19
000
FTUS43 KGLD 262209 AAA
TAFGLD
TAF AMD
KGLD 262209Z 2622/2718 01009KT P6SM SCT012 OVC045
     FM262300 06009KT P6SM VCSH OVC035
     FM270600 VRB03KT 5SM BR SCT130
     FM271200 28006KT 1 1/2SM BR FEW200
     FM271400 22004KT P6SM FEW200=

USA.gov is the U.S. government's official web portal to all federal, state and local government web resources and services.